Weersoverzicht van METAR-stations binnen 150 km

EHRD - Rotterdam Airport
Afstand tot weerstation: ZO 28 km
Update: 22-04-2021 12:55
Overwegend bewolkt
Overwegend bewolkt
 Wind van N
Wind: N 13 km/h
Temperatuur: 10°C
Gevoelstemperatuur: 8°C
Dauwpunt: 1°C
Luchtvochtigheid: 54%
Luchtdruk: 1027 hPa
Bewolking: Overwegend bewolkt
Zicht: 10 km
Details Bewolking: Overwegend bewolkt 1036 m
2021/04/22 10:55 EHRD 221055Z AUTO 01007KT 320V050 9999 BKN034 10/01 Q1027 NOSIG
EHSC - Goeree Le Sea (Platform ter hoogte van Zeeland)
Afstand tot weerstation: WZW 36 km
Update: 22-04-2021 12:55

 Wind van NO
Wind: NO 22 km/h
Temperatuur: 7°C
Gevoelstemperatuur: 4°C
Dauwpunt: 0°C
Luchtvochtigheid: 61%
Luchtdruk: 1028 hPa
Zicht: 10 km
2021/04/22 10:55 EHSC 221055Z AUTO 04012KT 9999 ///////// 07/00 Q1028 W08/H12
 
EHAM - A'dam Schiphol
Afstand tot weerstation: ONO 51 km
Update: 22-04-2021 12:55
Gedeeltelijk bewolkt
Gedeeltelijk bewolkt
 Wind van N
Wind: N 15 km/h
Temperatuur: 10°C
Gevoelstemperatuur: 8°C
Dauwpunt: 1°C
Luchtvochtigheid: 54%
Luchtdruk: 1027 hPa
Bewolking: Gedeeltelijk bewolkt
Zicht: 10 km
Details Bewolking: Gedeeltelijk bewolkt 1097 m
2021/04/22 10:55 EHAM 221055Z 35008KT 300V040 9999 SCT036 10/01 Q1027 NOSIG
EHSA - Euro Platform (Ter hoogte van Zeeland)
Afstand tot weerstation: W 58 km
Update: 22-04-2021 12:55

 Wind van N
Wind: N 19 km/h
Temperatuur: 7°C
Gevoelstemperatuur: 4°C
Dauwpunt: 1°C
Luchtvochtigheid: 66%
Luchtdruk: 1028 hPa
Zicht: 10 km
2021/04/22 10:55 EHSA 221055Z AUTO 01010KT 9999 ///////// 07/01 Q1028 W08/H13
 
EHPG - P11-B Sea (Platform ter hoogte van Zuid Holland)
Afstand tot weerstation: NW 60 km
Update: 22-04-2021 12:55
Overwegend bewolkt
Overwegend bewolkt
 Wind van NO
Wind: NO 13 km/h
Temperatuur: 7°C
Gevoelstemperatuur: 5°C
Dauwpunt: 1°C
Luchtvochtigheid: 66%
Luchtdruk: 1028 hPa
Bewolking: Overwegend bewolkt
Zicht: 10 km
Details Bewolking: Overwegend bewolkt 823 m
2021/04/22 10:55 EHPG 221055Z AUTO 04007KT 330V110 9999 BKN027 07/01 Q1028
EHWO - Vliegveld Woensdrecht
Afstand tot weerstation: ZZO 65 km
Update: 22-04-2021 12:55
Overwegend bewolkt
Overwegend bewolkt
 Wind van NO
Wind: NO 17 km/h
Temperatuur: 10°C
Gevoelstemperatuur: 8°C
Dauwpunt: 0°C
Luchtvochtigheid: 50%
Luchtdruk: 1027 hPa
Bewolking: Overwegend bewolkt
Details Bewolking: Overwegend bewolkt 7010 m
Overwegend bewolkt 10668 m
2021/04/22 10:55 EHWO 221055Z AUTO 04009KT 300V100 //// // BKN230 BKN350 10/M00 Q1027 RE//
 
EHGR - Vliegveld Gilze-Rijen
Afstand tot weerstation: ZO 79 km
Update: 22-04-2021 12:55
Overwegend bewolkt
Overwegend bewolkt
 Wind van NNO
Wind: NNO 15 km/h
Temperatuur: 10°C
Gevoelstemperatuur: 8°C
Dauwpunt: 1°C
Luchtvochtigheid: 54%
Luchtdruk: 1027 hPa
Bewolking: Overwegend bewolkt
Zicht: 10 km
Details Bewolking: Enkele wolken 1189 m
Overwegend bewolkt 10668 m
2021/04/22 10:55 EHGR 221055Z AUTO 03008KT 300V060 9999 FEW039 BKN350 10/01 Q1027 BLU NOSIG
EHQE - Hoorn-A Sea (Platform ter hoogte van Noord Holland)
Afstand tot weerstation: N 103 km
Update: 22-04-2021 12:55
Overwegend bewolkt
Overwegend bewolkt
 Wind van NW
Wind: NW 24 km/h
Temperatuur: 7°C
Gevoelstemperatuur: 3°C
Dauwpunt: -1°C
Luchtvochtigheid: 57%
Luchtdruk: 1027 hPa
Bewolking: Overwegend bewolkt
Zicht: 10 km
Details Bewolking: Overwegend bewolkt 853 m
Overwegend bewolkt 975 m
2021/04/22 10:55 EHQE 221055Z AUTO 32013KT 9999 BKN028 BKN032 07/M01 Q1027
 
EHKD - Marinebasis De Kooy (Den Helder)
Afstand tot weerstation: NNO 114 km
Update: 22-04-2021 12:55
Overwegend bewolkt
Overwegend bewolkt
 Wind van NNW
Wind: NNW 17 km/h
Temperatuur: 9°C
Gevoelstemperatuur: 7°C
Dauwpunt: 1°C
Luchtvochtigheid: 58%
Luchtdruk: 1027 hPa
Bewolking: Overwegend bewolkt
Zicht: 10 km
Details Bewolking: Overwegend bewolkt 1006 m
2021/04/22 10:55 EHKD 221055Z AUTO 34009KT 290V040 9999 BKN033 09/01 Q1027 BLU NOSIG
EHEH - Vliegveld Eindhoven
Afstand tot weerstation: OZO 115 km
Update: 22-04-2021 12:55
Overwegend bewolkt
Overwegend bewolkt
 Wind van N
Wind: N 13 km/h
Temperatuur: 10°C
Gevoelstemperatuur: 8°C
Dauwpunt: 0°C
Luchtvochtigheid: 50%
Luchtdruk: 1026 hPa
Bewolking: Overwegend bewolkt
Zicht: 10 km
Details Bewolking: Enkele wolken 1097 m
Overwegend bewolkt 7925 m
2021/04/22 10:55 EHEH 221055Z AUTO 36007KT 290V020 9999 FEW036 BKN260 10/00 Q1026 BLU NOSIG
 
EHVK - Vliegveld Volkel
Afstand tot weerstation: OZO 124 km
Update: 22-04-2021 12:55
Gedeeltelijk bewolkt
Gedeeltelijk bewolkt
 Wind van NNW
Wind: NNW 11 km/h
Temperatuur: 10°C
Gevoelstemperatuur: 8°C
Dauwpunt: 0°C
Luchtvochtigheid: 50%
Luchtdruk: 1026 hPa
Bewolking: Gedeeltelijk bewolkt
Zicht: 10 km
Details Bewolking: Gedeeltelijk bewolkt 1158 m
2021/04/22 10:55 EHVK 221055Z AUTO 34006KT 270V030 9999 SCT038 10/00 Q1026 BLU NOSIG
EHDL - Vliegveld Deelen
Afstand tot weerstation: O 128 km
Update: 22-04-2021 12:55
Overwegend bewolkt
Overwegend bewolkt
 Wind van N
Wind: N 17 km/h
Temperatuur: 10°C
Gevoelstemperatuur: 8°C
Dauwpunt: -1°C
Luchtvochtigheid: 47%
Luchtdruk: 1026 hPa
Bewolking: Overwegend bewolkt
Zicht: 10 km
Details Bewolking: Enkele wolken 7925 m
Overwegend bewolkt 10058 m
2021/04/22 10:55 EHDL 221055Z AUTO 36009KT 280V090 9999 FEW260 BKN330 10/M01 Q1026 BLU